createdAt,value
2023-04-27T00:01:17.070Z,8.30
2023-04-27T00:02:49.978Z,8.30
2023-04-27T00:04:22.991Z,8.40
2023-04-27T00:05:56.269Z,8.30
2023-04-27T00:07:28.268Z,8.40
2023-04-27T00:09:01.227Z,8.30
2023-04-27T00:10:34.266Z,8.30
2023-04-27T00:12:07.591Z,8.30
2023-04-27T00:13:40.283Z,8.30
2023-04-27T00:15:13.396Z,8.30
2023-04-27T00:16:46.218Z,8.30
2023-04-27T00:18:19.015Z,8.30
2023-04-27T00:19:52.140Z,8.40
2023-04-27T00:21:24.849Z,8.30
2023-04-27T00:22:57.596Z,8.30
2023-04-27T00:24:30.457Z,8.30
2023-04-27T00:26:03.234Z,8.30
2023-04-27T00:27:35.973Z,8.30
2023-04-27T00:29:08.704Z,8.30
2023-04-27T00:30:42.720Z,8.30
2023-04-27T00:32:15.557Z,8.30
2023-04-27T00:33:48.366Z,8.30
2023-04-27T00:35:21.188Z,8.30
2023-04-27T00:36:52.933Z,8.30
2023-04-27T00:38:25.631Z,8.30
2023-04-27T00:39:58.318Z,8.30
2023-04-27T00:41:31.517Z,8.20
2023-04-27T00:43:04.242Z,8.20
2023-04-27T00:44:38.051Z,8.20
2023-04-27T00:46:15.271Z,8.20
2023-04-27T00:47:48.171Z,8.20
2023-04-27T00:49:21.426Z,8.20
2023-04-27T00:50:54.176Z,8.10
2023-04-27T00:52:27.011Z,8.10
2023-04-27T00:53:59.873Z,8.10
2023-04-27T00:55:32.663Z,8.10
2023-04-27T00:57:05.459Z,8.00
2023-04-27T00:58:38.162Z,7.90
2023-04-27T01:00:11.800Z,7.90
2023-04-27T01:01:46.703Z,7.80
2023-04-27T01:03:19.669Z,7.80
2023-04-27T01:04:53.340Z,7.70
2023-04-27T01:06:25.213Z,7.70
2023-04-27T01:07:57.906Z,7.70
2023-04-27T01:09:30.712Z,7.70
2023-04-27T01:11:04.126Z,7.70
2023-04-27T01:12:37.303Z,7.50
2023-04-27T01:14:10.050Z,7.50
2023-04-27T01:15:42.739Z,7.50
2023-04-27T01:17:18.195Z,7.50
2023-04-27T01:18:50.975Z,7.50
2023-04-27T01:20:23.934Z,7.50
2023-04-27T01:21:55.755Z,7.50
2023-04-27T01:23:29.808Z,7.50
2023-04-27T01:25:02.520Z,7.60
2023-04-27T01:26:35.559Z,7.60
2023-04-27T01:28:08.253Z,7.50
2023-04-27T01:29:41.171Z,7.50
2023-04-27T01:31:14.898Z,7.50
2023-04-27T01:32:47.643Z,7.40
2023-04-27T01:34:20.648Z,7.50
2023-04-27T01:35:53.314Z,7.40
2023-04-27T01:37:27.199Z,7.40
2023-04-27T01:39:01.224Z,7.40
2023-04-27T01:40:33.965Z,7.40
2023-04-27T01:42:06.880Z,7.40
2023-04-27T01:43:39.704Z,7.40
2023-04-27T01:45:11.966Z,7.40
2023-04-27T01:46:44.752Z,7.40
2023-04-27T01:48:16.517Z,7.40
2023-04-27T01:49:49.233Z,7.40
2023-04-27T01:51:21.916Z,7.30
2023-04-27T01:52:54.644Z,7.30
2023-04-27T01:54:28.844Z,7.20
2023-04-27T01:56:02.257Z,7.20
2023-04-27T01:57:35.055Z,7.20
2023-04-27T01:59:07.803Z,7.20
2023-04-27T02:00:39.576Z,7.20
2023-04-27T02:02:12.348Z,7.20
2023-04-27T02:03:45.271Z,7.20
2023-04-27T02:05:18.278Z,7.20
2023-04-27T02:06:51.011Z,7.20
2023-04-27T02:08:22.776Z,7.20
2023-04-27T02:09:56.814Z,7.20
2023-04-27T02:11:29.485Z,7.20
2023-04-27T02:13:02.267Z,7.20
2023-04-27T02:14:34.955Z,7.20
2023-04-27T02:16:08.389Z,7.20
2023-04-27T02:17:41.183Z,7.20
2023-04-27T02:19:14.131Z,7.20
2023-04-27T02:20:47.016Z,7.20
2023-04-27T02:22:19.704Z,7.20
2023-04-27T02:23:52.460Z,7.10
2023-04-27T02:25:25.889Z,7.10
2023-04-27T02:26:58.605Z,7.10
2023-04-27T02:28:32.160Z,7.00
2023-04-27T02:30:06.740Z,7.00
2023-04-27T02:31:39.987Z,7.00
2023-04-27T02:33:12.766Z,7.00
2023-04-27T02:34:45.467Z,7.00
2023-04-27T02:36:18.340Z,7.00
2023-04-27T02:37:51.031Z,7.00
2023-04-27T02:39:23.905Z,7.00
2023-04-27T02:40:56.993Z,7.00
2023-04-27T02:42:31.217Z,6.90
2023-04-27T02:44:03.923Z,6.90
2023-04-27T02:45:38.698Z,6.90
2023-04-27T02:47:11.871Z,6.80
2023-04-27T02:48:44.563Z,6.70
2023-04-27T02:50:17.263Z,6.60
2023-04-27T02:51:49.959Z,6.60
2023-04-27T02:53:21.698Z,6.60
2023-04-27T02:54:54.429Z,6.50
2023-04-27T02:56:28.492Z,6.50
2023-04-27T02:58:01.253Z,6.50
2023-04-27T02:59:34.004Z,6.50
2023-04-27T03:01:06.795Z,6.60
2023-04-27T03:02:39.658Z,6.60
2023-04-27T03:04:14.039Z,6.60
2023-04-27T03:05:46.947Z,6.60
2023-04-27T03:07:18.683Z,6.60
2023-04-27T03:08:51.429Z,6.70
2023-04-27T03:10:23.243Z,6.60
2023-04-27T03:11:57.359Z,6.60
2023-04-27T03:13:30.072Z,6.60
2023-04-27T03:15:02.865Z,6.60
2023-04-27T03:16:36.218Z,6.60
2023-04-27T03:18:09.115Z,6.60
2023-04-27T03:19:42.009Z,6.60
2023-04-27T03:21:16.784Z,6.60
2023-04-27T03:22:49.526Z,6.60
2023-04-27T03:24:25.448Z,6.60
2023-04-27T03:25:58.127Z,6.60
2023-04-27T03:27:31.292Z,6.60
2023-04-27T03:29:03.992Z,6.60
2023-04-27T03:30:36.703Z,6.60
2023-04-27T03:32:08.580Z,6.60
2023-04-27T03:33:41.915Z,6.60
2023-04-27T03:35:14.873Z,6.50
2023-04-27T03:36:47.604Z,6.60
2023-04-27T03:38:20.296Z,6.60
2023-04-27T03:39:53.733Z,6.60
2023-04-27T03:41:26.419Z,6.60
2023-04-27T03:43:00.878Z,6.60
2023-04-27T03:44:36.240Z,6.60
2023-04-27T03:46:09.675Z,6.70
2023-04-27T03:47:42.430Z,6.50
2023-04-27T03:49:15.330Z,6.50
2023-04-27T03:50:48.178Z,6.50
2023-04-27T03:52:20.148Z,6.50
2023-04-27T03:53:53.266Z,6.50
2023-04-27T03:55:26.742Z,6.50
2023-04-27T03:56:59.463Z,6.40
2023-04-27T03:58:33.510Z,6.40
2023-04-27T04:00:11.465Z,6.40
2023-04-27T04:01:43.332Z,6.40
2023-04-27T04:03:16.594Z,6.40
2023-04-27T04:04:49.681Z,6.40
2023-04-27T04:06:22.419Z,6.40
2023-04-27T04:07:55.838Z,6.40
2023-04-27T04:09:28.553Z,6.40
2023-04-27T04:11:01.425Z,6.40
2023-04-27T04:12:34.129Z,6.40
2023-04-27T04:14:08.148Z,6.40
2023-04-27T04:15:40.865Z,6.40
2023-04-27T04:17:12.617Z,6.40
2023-04-27T04:18:45.390Z,6.40
2023-04-27T04:20:18.178Z,6.40
2023-04-27T04:21:50.903Z,6.40
2023-04-27T04:23:24.008Z,6.40
2023-04-27T04:24:56.782Z,6.50
2023-04-27T04:26:30.669Z,6.50
2023-04-27T04:28:03.550Z,6.50
2023-04-27T04:29:36.679Z,6.50
2023-04-27T04:31:09.530Z,6.50
2023-04-27T04:32:41.555Z,6.50
2023-04-27T04:34:14.402Z,6.50
2023-04-27T04:35:47.676Z,6.50
2023-04-27T04:37:20.398Z,6.40
2023-04-27T04:38:53.954Z,6.40
2023-04-27T04:40:27.077Z,6.40
2023-04-27T04:41:59.834Z,6.40
2023-04-27T04:43:32.742Z,6.40
2023-04-27T04:45:08.188Z,6.40
2023-04-27T04:46:40.994Z,6.40
2023-04-27T04:48:16.306Z,6.30
2023-04-27T04:49:49.002Z,6.30
2023-04-27T04:51:21.689Z,6.30
2023-04-27T04:52:54.433Z,6.30
2023-04-27T04:54:27.660Z,6.20
2023-04-27T04:56:09.576Z,6.20
2023-04-27T04:57:42.396Z,6.20
2023-04-27T04:59:14.276Z,6.20
2023-04-27T05:00:48.437Z,6.10
2023-04-27T05:02:21.500Z,6.20
2023-04-27T05:03:54.468Z,6.10
2023-04-27T05:05:27.251Z,6.10
2023-04-27T05:07:00.215Z,6.10
2023-04-27T05:08:32.933Z,6.10
2023-04-27T05:10:06.363Z,6.10
2023-04-27T05:11:39.061Z,6.20
2023-04-27T05:13:11.759Z,6.20
2023-04-27T05:14:44.588Z,6.30
2023-04-27T05:16:18.657Z,6.30
2023-04-27T05:17:51.406Z,6.40
2023-04-27T05:19:25.187Z,6.40
2023-04-27T05:20:57.892Z,6.40
2023-04-27T05:22:30.595Z,6.40
2023-04-27T05:24:03.264Z,6.40
2023-04-27T05:25:41.379Z,6.50
2023-04-27T05:27:14.620Z,6.50
2023-04-27T05:28:49.240Z,6.50
2023-04-27T05:30:22.053Z,6.50
2023-04-27T05:31:56.177Z,6.60
2023-04-27T05:33:28.900Z,6.60
2023-04-27T05:35:01.609Z,6.70
2023-04-27T05:36:34.315Z,6.70
2023-04-27T05:38:07.009Z,6.70
2023-04-27T05:39:40.532Z,6.80
2023-04-27T05:41:13.248Z,6.80
2023-04-27T05:42:47.561Z,6.80
2023-04-27T05:44:20.277Z,6.80
2023-04-27T05:45:53.290Z,6.90
2023-04-27T05:47:27.388Z,6.90
2023-04-27T05:49:00.202Z,6.90
2023-04-27T05:50:32.903Z,6.90
2023-04-27T05:52:05.874Z,7.00
2023-04-27T05:53:38.907Z,7.00
2023-04-27T05:55:11.633Z,7.00
2023-04-27T05:56:44.336Z,7.10
2023-04-27T05:58:17.079Z,7.10
2023-04-27T05:59:49.794Z,7.20
2023-04-27T06:01:23.411Z,7.20
2023-04-27T06:02:57.543Z,7.20
2023-04-27T06:04:32.653Z,7.30
2023-04-27T06:06:05.779Z,7.30
2023-04-27T06:07:38.520Z,7.40
2023-04-27T06:09:11.327Z,7.40
2023-04-27T06:10:44.090Z,7.50
2023-04-27T06:12:16.790Z,7.50
2023-04-27T06:13:49.483Z,7.60
2023-04-27T06:15:22.190Z,7.60
2023-04-27T06:16:54.864Z,7.60
2023-04-27T06:18:28.957Z,7.60
2023-04-27T06:20:01.714Z,7.60
2023-04-27T06:21:34.787Z,7.70
2023-04-27T06:23:07.595Z,7.70
2023-04-27T06:24:40.308Z,7.70
2023-04-27T06:26:12.996Z,7.80
2023-04-27T06:27:45.844Z,7.80
2023-04-27T06:29:18.615Z,8.00
2023-04-27T06:30:51.412Z,7.90
2023-04-27T06:32:24.225Z,8.00
2023-04-27T06:33:58.275Z,8.10
2023-04-27T06:35:31.568Z,8.10
2023-04-27T06:37:04.257Z,8.20
2023-04-27T06:38:36.947Z,8.20
2023-04-27T06:40:10.684Z,8.30
2023-04-27T06:41:43.379Z,8.40
2023-04-27T06:43:16.072Z,8.50
2023-04-27T06:44:48.777Z,8.60
2023-04-27T06:46:21.845Z,8.60
2023-04-27T06:47:54.554Z,8.70
2023-04-27T06:49:28.635Z,8.80
2023-04-27T06:51:01.555Z,8.80
2023-04-27T06:52:34.300Z,8.80
2023-04-27T06:54:07.529Z,8.70
2023-04-27T06:55:43.472Z,8.80
2023-04-27T06:57:17.239Z,8.90
2023-04-27T06:58:49.921Z,8.90
2023-04-27T07:00:22.857Z,8.90
2023-04-27T07:01:55.617Z,8.90
2023-04-27T07:03:28.479Z,9.00
2023-04-27T07:05:02.765Z,9.10
2023-04-27T07:06:36.234Z,9.10
2023-04-27T07:08:09.271Z,9.30
2023-04-27T07:09:42.435Z,9.50
2023-04-27T07:11:16.142Z,9.80
2023-04-27T07:12:48.842Z,10.00
2023-04-27T07:14:21.576Z,10.20
2023-04-27T07:15:58.479Z,10.40
2023-04-27T07:17:31.360Z,10.50
2023-04-27T07:19:04.181Z,10.80
2023-04-27T07:20:39.931Z,11.00
2023-04-27T07:22:12.640Z,11.20
2023-04-27T07:23:46.422Z,11.40
2023-04-27T07:25:19.153Z,11.60
2023-04-27T07:26:51.893Z,11.70
2023-04-27T07:28:24.600Z,11.70
2023-04-27T07:29:57.271Z,11.60
2023-04-27T07:31:29.975Z,11.70
2023-04-27T07:33:02.750Z,11.70
2023-04-27T07:34:48.980Z,11.80
2023-04-27T07:36:27.374Z,11.90
2023-04-27T07:38:01.562Z,12.00
2023-04-27T07:39:34.296Z,12.10
2023-04-27T07:41:07.721Z,12.20
2023-04-27T07:42:41.235Z,12.40
2023-04-27T07:44:15.092Z,12.60
2023-04-27T07:45:48.034Z,12.80
2023-04-27T07:47:21.860Z,13.10
2023-04-27T07:48:55.169Z,13.40
2023-04-27T07:50:28.407Z,13.70
2023-04-27T07:52:02.951Z,13.90
2023-04-27T07:53:36.459Z,13.90
2023-04-27T07:55:09.781Z,14.00
2023-04-27T07:56:43.523Z,14.00
2023-04-27T07:58:16.886Z,14.10
2023-04-27T07:59:49.586Z,14.20
2023-04-27T08:01:22.303Z,14.30
2023-04-27T08:02:55.809Z,14.50
2023-04-27T08:04:29.028Z,14.60
2023-04-27T08:06:02.370Z,14.90
2023-04-27T08:07:41.186Z,15.10
2023-04-27T08:09:16.985Z,15.40
2023-04-27T08:10:49.683Z,15.60
2023-04-27T08:12:22.430Z,15.70
2023-04-27T08:13:55.101Z,15.80
2023-04-27T08:15:27.999Z,15.90
2023-04-27T08:17:00.730Z,16.10
2023-04-27T08:18:33.494Z,16.20
2023-04-27T08:20:07.809Z,16.30
2023-04-27T08:21:40.627Z,16.40
2023-04-27T08:23:14.900Z,16.60
2023-04-27T08:24:47.584Z,16.70
2023-04-27T08:26:20.657Z,16.90
2023-04-27T08:27:53.337Z,17.10
2023-04-27T08:29:28.596Z,17.10
2023-04-27T08:31:01.965Z,17.10
2023-04-27T08:32:34.786Z,17.10
2023-04-27T08:34:07.535Z,17.10
2023-04-27T08:35:40.412Z,17.10
2023-04-27T08:37:13.158Z,17.20
2023-04-27T08:38:47.276Z,17.30
2023-04-27T08:40:20.408Z,17.30
2023-04-27T08:41:53.341Z,17.40
2023-04-27T08:43:26.148Z,17.30
2023-04-27T08:44:58.871Z,17.40
2023-04-27T08:46:32.445Z,17.30
2023-04-27T08:48:05.820Z,17.40
2023-04-27T08:49:41.281Z,17.50
2023-04-27T08:51:16.922Z,17.60
2023-04-27T08:52:50.355Z,17.60
2023-04-27T08:54:24.392Z,17.70
2023-04-27T08:55:57.782Z,17.80
2023-04-27T08:57:30.528Z,17.90
2023-04-27T08:59:04.333Z,18.10
2023-04-27T09:00:40.600Z,18.30
2023-04-27T09:02:20.884Z,18.40
2023-04-27T09:03:57.810Z,18.50
2023-04-27T09:05:30.877Z,18.50
2023-04-27T09:07:11.668Z,18.70
2023-04-27T09:08:48.688Z,18.80
2023-04-27T09:10:23.150Z,19.00
2023-04-27T09:11:55.963Z,19.10
2023-04-27T09:13:36.505Z,19.30
2023-04-27T09:15:10.211Z,19.00
2023-04-27T09:16:43.806Z,18.90
2023-04-27T09:18:18.699Z,18.80
2023-04-27T09:19:51.421Z,18.70
2023-04-27T09:21:24.869Z,18.70
2023-04-27T09:22:58.545Z,18.80
2023-04-27T09:24:31.592Z,18.90
2023-04-27T09:26:08.612Z,19.00
2023-04-27T09:27:43.699Z,19.20
2023-04-27T09:29:16.399Z,19.20
2023-04-27T09:30:54.370Z,19.20
2023-04-27T09:32:27.098Z,19.30
2023-04-27T09:34:00.169Z,19.40
2023-04-27T09:35:33.920Z,19.50
2023-04-27T09:37:07.366Z,19.70
2023-04-27T09:38:40.787Z,19.90
2023-04-27T09:40:14.545Z,19.90
2023-04-27T09:41:50.189Z,19.80
2023-04-27T09:43:23.913Z,19.70
2023-04-27T09:44:56.951Z,19.60
2023-04-27T09:46:33.943Z,19.70
2023-04-27T09:48:07.867Z,19.80
2023-04-27T09:49:40.948Z,19.80
2023-04-27T09:51:16.176Z,19.90
2023-04-27T09:52:48.914Z,19.60
2023-04-27T09:54:24.909Z,19.50
2023-04-27T09:56:10.960Z,19.50
2023-04-27T09:57:54.152Z,19.50
2023-04-27T09:59:42.496Z,19.50
2023-04-27T10:01:23.662Z,19.60
2023-04-27T10:03:12.874Z,19.70
2023-04-27T10:05:01.572Z,19.90
2023-04-27T10:06:55.936Z,20.00
2023-04-27T10:08:30.705Z,20.00
2023-04-27T10:10:05.631Z,20.00
2023-04-27T10:11:43.488Z,19.90
2023-04-27T10:13:24.006Z,19.90
2023-04-27T10:14:57.916Z,19.80
2023-04-27T10:16:44.516Z,19.70
2023-04-27T10:18:27.514Z,19.60
2023-04-27T10:20:01.691Z,19.50
2023-04-27T10:21:34.425Z,19.60
2023-04-27T10:23:07.683Z,19.60
2023-04-27T10:24:42.689Z,19.70
2023-04-27T10:26:23.209Z,19.60
2023-04-27T10:27:57.460Z,19.60
2023-04-27T10:29:38.581Z,19.60
2023-04-27T10:31:12.151Z,19.70
2023-04-27T10:32:52.450Z,19.70
2023-04-27T10:34:29.048Z,19.70
2023-04-27T10:36:01.756Z,19.70
2023-04-27T10:37:40.659Z,19.80
2023-04-27T10:39:27.667Z,19.80
2023-04-27T10:41:05.933Z,19.80
2023-04-27T10:42:38.645Z,19.70
2023-04-27T10:44:18.524Z,19.50
2023-04-27T10:45:52.582Z,19.40
2023-04-27T10:47:25.764Z,19.30
2023-04-27T10:48:58.769Z,19.20
2023-04-27T10:50:31.916Z,19.20
2023-04-27T10:52:05.082Z,19.20
2023-04-27T10:53:38.497Z,19.10
2023-04-27T10:55:18.248Z,18.80
2023-04-27T10:56:51.084Z,18.60
2023-04-27T10:58:26.688Z,18.60
2023-04-27T11:00:07.787Z,18.60
2023-04-27T11:01:42.310Z,18.60
2023-04-27T11:03:17.328Z,18.70
2023-04-27T11:04:50.248Z,18.70
2023-04-27T11:06:22.991Z,18.90
2023-04-27T11:08:05.569Z,18.90
2023-04-27T11:09:38.712Z,18.90
2023-04-27T11:11:16.658Z,19.00
2023-04-27T11:12:49.570Z,19.10
2023-04-27T11:14:22.335Z,19.10
2023-04-27T11:15:57.713Z,19.20
2023-04-27T11:17:33.278Z,19.30
2023-04-27T11:19:06.689Z,19.30
2023-04-27T11:20:39.416Z,19.40
2023-04-27T11:22:16.741Z,19.40
2023-04-27T11:23:49.511Z,19.40
2023-04-27T11:25:28.735Z,19.40
2023-04-27T11:27:01.439Z,19.30
2023-04-27T11:28:34.148Z,19.40
2023-04-27T11:30:21.181Z,19.30
2023-04-27T11:31:53.911Z,19.30
2023-04-27T11:33:28.873Z,19.20
2023-04-27T11:35:01.803Z,19.30
2023-04-27T11:36:34.544Z,19.20
2023-04-27T11:38:07.356Z,19.20
2023-04-27T11:39:41.472Z,19.20
2023-04-27T11:41:14.604Z,19.20
2023-04-27T11:42:58.079Z,19.10
2023-04-27T11:44:30.791Z,19.00
2023-04-27T11:46:04.687Z,19.00
2023-04-27T11:47:38.001Z,18.90
2023-04-27T11:49:14.024Z,18.90
2023-04-27T11:50:48.572Z,18.70
2023-04-27T11:52:21.343Z,18.60
2023-04-27T11:53:54.047Z,18.60
2023-04-27T11:55:26.795Z,18.40
2023-04-27T11:57:06.215Z,18.30
2023-04-27T11:58:40.728Z,18.20
2023-04-27T12:00:15.425Z,18.20
2023-04-27T12:01:48.502Z,18.10
2023-04-27T12:03:21.752Z,18.10
2023-04-27T12:04:56.478Z,18.00
2023-04-27T12:06:33.206Z,17.90
2023-04-27T12:08:06.675Z,17.80
2023-04-27T12:09:39.385Z,17.90
2023-04-27T12:11:12.367Z,17.80
2023-04-27T12:12:45.162Z,17.90
2023-04-27T12:14:19.762Z,17.90
2023-04-27T12:15:52.491Z,18.00
2023-04-27T12:17:25.233Z,18.00
2023-04-27T12:18:57.958Z,18.00
2023-04-27T12:20:32.005Z,18.00
2023-04-27T12:22:06.541Z,18.10
2023-04-27T12:23:39.236Z,18.20
2023-04-27T12:25:11.953Z,18.20
2023-04-27T12:26:45.041Z,18.30
2023-04-27T12:28:20.332Z,18.30
2023-04-27T12:29:54.190Z,18.30
2023-04-27T12:31:28.243Z,18.40
2023-04-27T12:33:01.219Z,18.40
2023-04-27T12:34:34.411Z,18.50
2023-04-27T12:36:08.825Z,18.50
2023-04-27T12:37:41.954Z,18.40
2023-04-27T12:39:16.187Z,18.40
2023-04-27T12:40:49.288Z,18.40
2023-04-27T12:42:24.089Z,18.40
2023-04-27T12:43:56.809Z,18.40
2023-04-27T12:45:29.650Z,18.40
2023-04-27T12:47:02.331Z,18.50
2023-04-27T12:48:35.152Z,18.60
2023-04-27T12:50:09.648Z,18.60
2023-04-27T12:51:44.188Z,18.60
2023-04-27T12:53:17.164Z,18.60
2023-04-27T12:54:51.151Z,18.60
2023-04-27T12:56:23.978Z,18.60
2023-04-27T12:57:57.996Z,18.70
2023-04-27T12:59:30.927Z,18.60
2023-04-27T13:01:03.712Z,18.60
2023-04-27T13:02:36.971Z,18.60
2023-04-27T13:04:09.990Z,18.60
2023-04-27T13:05:44.294Z,18.60
2023-04-27T13:07:19.087Z,18.70
2023-04-27T13:08:52.033Z,18.70
2023-04-27T13:10:24.842Z,18.70
2023-04-27T13:11:59.229Z,18.80
2023-04-27T13:13:34.050Z,18.80
2023-04-27T13:15:08.153Z,18.80
2023-04-27T13:16:41.089Z,18.70
2023-04-27T13:18:13.978Z,18.70
2023-04-27T13:19:46.774Z,18.70
2023-04-27T13:21:20.343Z,18.70
2023-04-27T13:22:54.495Z,18.60
2023-04-27T13:24:29.262Z,18.50
2023-04-27T13:26:02.243Z,18.50
2023-04-27T13:27:35.655Z,18.40
2023-04-27T13:29:08.388Z,18.40
2023-04-27T13:30:41.123Z,18.40
2023-04-27T13:32:13.818Z,18.40
2023-04-27T13:33:46.595Z,18.50
2023-04-27T13:35:19.446Z,18.50
2023-04-27T13:36:52.250Z,18.60
2023-04-27T13:38:26.381Z,18.60
2023-04-27T13:39:59.058Z,18.60
2023-04-27T13:41:32.880Z,18.60
2023-04-27T13:43:05.636Z,18.60
2023-04-27T13:44:38.370Z,18.60
2023-04-27T13:46:11.450Z,18.70
2023-04-27T13:47:44.248Z,18.60
2023-04-27T13:49:17.049Z,18.60
2023-04-27T13:50:49.785Z,18.60
2023-04-27T13:52:22.492Z,18.50
2023-04-27T13:53:56.501Z,18.50
2023-04-27T13:55:29.357Z,18.50
2023-04-27T13:57:03.331Z,18.50
2023-04-27T13:58:36.916Z,18.40
2023-04-27T14:00:11.315Z,18.40
2023-04-27T14:01:44.312Z,18.30
2023-04-27T14:03:17.629Z,18.30
2023-04-27T14:04:50.598Z,18.30
2023-04-27T14:06:23.499Z,18.20
2023-04-27T14:07:56.250Z,18.20
2023-04-27T14:09:30.330Z,18.10
2023-04-27T14:11:03.061Z,18.10
2023-04-27T14:12:36.029Z,18.20
2023-04-27T14:14:08.835Z,18.20
2023-04-27T14:15:41.663Z,18.20
2023-04-27T14:17:14.396Z,18.20
2023-04-27T14:18:47.098Z,18.20
2023-04-27T14:20:19.809Z,18.20
2023-04-27T14:21:52.588Z,18.20
2023-04-27T14:23:25.377Z,18.20
2023-04-27T14:24:59.483Z,18.20
2023-04-27T14:26:32.178Z,18.10
2023-04-27T14:28:06.760Z,18.10
2023-04-27T14:29:39.497Z,17.80
2023-04-27T14:31:12.260Z,17.70
2023-04-27T14:32:45.405Z,17.70
2023-04-27T14:34:20.255Z,17.70
2023-04-27T14:35:56.012Z,17.70
2023-04-27T14:37:28.793Z,17.70
2023-04-27T14:39:01.992Z,17.70
2023-04-27T14:40:36.018Z,17.70
2023-04-27T14:42:08.756Z,17.80
2023-04-27T14:43:41.777Z,17.80
2023-04-27T14:45:15.803Z,17.80
2023-04-27T14:46:48.617Z,17.90
2023-04-27T14:48:21.336Z,17.80
2023-04-27T14:49:54.032Z,17.90
2023-04-27T14:51:28.726Z,17.90
2023-04-27T14:53:01.770Z,17.80
2023-04-27T14:54:35.534Z,17.80
2023-04-27T14:56:09.667Z,17.80
2023-04-27T14:57:42.365Z,17.80
2023-04-27T14:59:15.252Z,17.80
2023-04-27T15:00:48.134Z,17.70
2023-04-27T15:02:20.950Z,17.80
2023-04-27T15:03:54.252Z,17.80
2023-04-27T15:05:27.120Z,17.80
2023-04-27T15:06:59.793Z,17.70
2023-04-27T15:08:34.137Z,17.60
2023-04-27T15:10:08.453Z,17.40
2023-04-27T15:11:42.504Z,17.40
2023-04-27T15:13:15.214Z,17.40
2023-04-27T15:14:49.912Z,17.40
2023-04-27T15:16:22.694Z,17.40
2023-04-27T15:17:55.507Z,17.50
2023-04-27T15:19:28.249Z,17.50
2023-04-27T15:21:01.312Z,17.60
2023-04-27T15:22:34.053Z,17.60
2023-04-27T15:24:07.119Z,17.60
2023-04-27T15:25:39.820Z,17.60
2023-04-27T15:27:14.259Z,17.70
2023-04-27T15:28:47.268Z,17.60
2023-04-27T15:30:19.997Z,17.70
2023-04-27T15:31:53.258Z,17.60
2023-04-27T15:33:26.461Z,17.60
2023-04-27T15:34:59.189Z,17.60
2023-04-27T15:36:32.426Z,17.60
2023-04-27T15:38:05.595Z,17.60
2023-04-27T15:39:38.296Z,17.70
2023-04-27T15:41:11.135Z,17.60
2023-04-27T15:42:45.202Z,17.70
2023-04-27T15:44:17.952Z,17.70
2023-04-27T15:45:50.724Z,17.60
2023-04-27T15:47:23.467Z,17.60
2023-04-27T15:48:56.164Z,17.50
2023-04-27T15:50:28.907Z,17.60
2023-04-27T15:52:01.663Z,17.50
2023-04-27T15:53:34.380Z,17.50
2023-04-27T15:55:08.456Z,17.50
2023-04-27T15:56:41.199Z,17.50
2023-04-27T15:58:16.033Z,17.50
2023-04-27T15:59:48.732Z,17.50
2023-04-27T16:01:21.479Z,17.50
2023-04-27T16:02:54.683Z,17.50
2023-04-27T16:04:27.633Z,17.40
2023-04-27T16:06:00.353Z,17.50
2023-04-27T16:07:33.073Z,17.50
2023-04-27T16:09:08.338Z,17.50
2023-04-27T16:10:42.544Z,17.60
2023-04-27T16:12:15.292Z,17.50
2023-04-27T16:13:49.350Z,17.50
2023-04-27T16:15:22.038Z,17.50
2023-04-27T16:16:56.078Z,17.50
2023-04-27T16:18:28.865Z,17.50
2023-04-27T16:20:01.555Z,17.50
2023-04-27T16:21:34.294Z,17.50
2023-04-27T16:23:07.025Z,17.50
2023-04-27T16:24:39.720Z,17.30
2023-04-27T16:26:12.446Z,17.40
2023-04-27T16:27:45.190Z,17.30
2023-04-27T16:29:19.224Z,17.30
2023-04-27T16:30:52.755Z,17.30
2023-04-27T16:32:26.705Z,17.30
2023-04-27T16:33:59.473Z,17.30
2023-04-27T16:35:33.529Z,17.40
2023-04-27T16:37:06.778Z,17.40
2023-04-27T16:38:39.706Z,17.40
2023-04-27T16:40:13.475Z,17.30
2023-04-27T16:41:46.239Z,17.30
2023-04-27T16:43:19.238Z,17.30
2023-04-27T16:44:53.559Z,17.30
2023-04-27T16:46:26.426Z,17.30
2023-04-27T16:47:59.802Z,17.30
2023-04-27T16:49:32.604Z,17.30
2023-04-27T16:51:05.718Z,17.30
2023-04-27T16:52:38.431Z,17.20
2023-04-27T16:54:11.110Z,17.20
2023-04-27T16:55:43.796Z,17.10
2023-04-27T16:57:16.508Z,17.10
2023-04-27T16:58:49.245Z,17.10
2023-04-27T17:00:23.401Z,17.10
2023-04-27T17:01:56.167Z,17.00
2023-04-27T17:03:29.824Z,16.90
2023-04-27T17:05:03.185Z,16.90
2023-04-27T17:06:35.932Z,16.90
2023-04-27T17:08:08.629Z,16.90
2023-04-27T17:09:41.651Z,16.80
2023-04-27T17:11:14.790Z,17.30
2023-04-27T17:12:47.527Z,16.80
2023-04-27T17:14:22.343Z,16.70
2023-04-27T17:15:57.733Z,16.70
2023-04-27T17:17:32.200Z,16.70
2023-04-27T17:19:04.868Z,16.60
2023-04-27T17:20:39.234Z,16.60
2023-04-27T17:22:14.704Z,16.60
2023-04-27T17:23:47.444Z,16.60
2023-04-27T17:25:20.255Z,16.50
2023-04-27T17:26:52.953Z,16.40
2023-04-27T17:28:25.754Z,16.40
2023-04-27T17:29:58.449Z,16.30
2023-04-27T17:31:32.566Z,16.30
2023-04-27T17:33:05.794Z,16.30
2023-04-27T17:34:40.386Z,16.30
2023-04-27T17:36:14.874Z,16.30
2023-04-27T17:37:47.777Z,16.20
2023-04-27T17:39:22.499Z,16.30
2023-04-27T17:40:55.250Z,16.20
2023-04-27T17:42:28.042Z,16.20
2023-04-27T17:44:00.782Z,16.20
2023-04-27T17:45:33.615Z,16.20
2023-04-27T17:47:07.750Z,16.10
2023-04-27T17:48:40.452Z,16.10
2023-04-27T17:50:14.653Z,16.10
2023-04-27T17:51:49.067Z,16.10
2023-04-27T17:53:21.796Z,16.00
2023-04-27T17:54:55.621Z,16.00
2023-04-27T17:56:28.335Z,16.00
2023-04-27T17:58:03.626Z,15.90
2023-04-27T17:59:36.837Z,15.90
2023-04-27T18:01:11.366Z,15.90
2023-04-27T18:02:45.782Z,15.90
2023-04-27T18:04:18.825Z,15.80
2023-04-27T18:05:51.587Z,15.80
2023-04-27T18:07:24.398Z,15.80
2023-04-27T18:08:57.156Z,15.80
2023-04-27T18:10:29.922Z,15.70
2023-04-27T18:12:03.027Z,15.60
2023-04-27T18:13:35.713Z,15.60
2023-04-27T18:15:10.020Z,15.50
2023-04-27T18:16:42.917Z,15.50
2023-04-27T18:18:22.556Z,15.50
2023-04-27T18:20:07.498Z,15.40
2023-04-27T18:21:41.408Z,15.40
2023-04-27T18:23:14.187Z,15.30
2023-04-27T18:24:47.622Z,15.30
2023-04-27T18:26:21.945Z,15.20
2023-04-27T18:27:55.443Z,15.10
2023-04-27T18:29:28.191Z,15.10
2023-04-27T18:31:00.917Z,15.00
2023-04-27T18:32:35.332Z,15.00
2023-04-27T18:34:09.359Z,15.00
2023-04-27T18:35:42.053Z,15.00
2023-04-27T18:37:14.758Z,15.00
2023-04-27T18:38:48.172Z,14.90
2023-04-27T18:40:22.460Z,14.90
2023-04-27T18:41:55.268Z,14.90
2023-04-27T18:43:28.010Z,14.80
2023-04-27T18:45:01.749Z,14.80
2023-04-27T18:46:35.413Z,14.90
2023-04-27T18:48:08.182Z,14.90
2023-04-27T18:49:42.297Z,14.80
2023-04-27T18:51:15.023Z,14.70
2023-04-27T18:52:48.082Z,14.70
2023-04-27T18:54:21.051Z,14.70
2023-04-27T18:55:53.746Z,14.60
2023-04-27T18:57:27.006Z,14.60
2023-04-27T18:59:00.686Z,14.60
2023-04-27T19:00:33.701Z,14.60
2023-04-27T19:02:07.351Z,14.60
2023-04-27T19:03:40.189Z,14.50
2023-04-27T19:05:15.782Z,14.50
2023-04-27T19:06:49.963Z,14.50
2023-04-27T19:08:22.733Z,14.40
2023-04-27T19:09:55.835Z,14.40
2023-04-27T19:11:28.821Z,14.40
2023-04-27T19:13:01.656Z,14.40
2023-04-27T19:14:34.382Z,14.40
2023-04-27T19:16:08.544Z,14.40
2023-04-27T19:17:41.256Z,14.30
2023-04-27T19:19:14.319Z,14.30
2023-04-27T19:20:49.254Z,14.30
2023-04-27T19:22:22.881Z,14.20
2023-04-27T19:23:55.599Z,14.20
2023-04-27T19:25:28.336Z,14.20
2023-04-27T19:27:01.117Z,14.20
2023-04-27T19:28:33.868Z,14.20
2023-04-27T19:30:08.307Z,14.20
2023-04-27T19:31:41.285Z,14.20
2023-04-27T19:33:14.560Z,14.20
2023-04-27T19:34:47.601Z,14.20
2023-04-27T19:36:21.629Z,14.10
2023-04-27T19:37:54.428Z,14.10
2023-04-27T19:39:27.115Z,14.10
2023-04-27T19:41:00.052Z,14.10
2023-04-27T19:42:32.747Z,14.10
2023-04-27T19:44:05.757Z,14.00
2023-04-27T19:45:39.606Z,14.00
2023-04-27T19:47:12.361Z,14.00
2023-04-27T19:48:45.080Z,14.00
2023-04-27T19:50:18.633Z,14.00
2023-04-27T19:51:52.659Z,14.10
2023-04-27T19:53:25.575Z,14.00
2023-04-27T19:54:59.808Z,14.00
2023-04-27T19:56:32.607Z,13.90
2023-04-27T19:58:05.414Z,14.00
2023-04-27T19:59:38.103Z,13.90
2023-04-27T20:01:12.966Z,13.90
2023-04-27T20:02:46.515Z,13.90
2023-04-27T20:04:20.738Z,13.80
2023-04-27T20:05:54.404Z,13.80
2023-04-27T20:07:28.640Z,13.80
2023-04-27T20:09:01.372Z,13.80
2023-04-27T20:10:34.119Z,13.80
2023-04-27T20:13:40.015Z,13.80
2023-04-27T20:15:12.812Z,13.80
2023-04-27T20:16:45.510Z,13.80
2023-04-27T20:18:19.125Z,13.80
2023-04-27T20:19:52.513Z,13.80
2023-04-27T20:21:26.201Z,13.80
2023-04-27T20:23:00.215Z,13.80